Time;durP1;ratioP1;P1;durP2;ratioP2;P2;SDS_P1;SDS_P2;PMS_P1;PMS_P2;Temp;Humidity;BMP_temperature;BMP_pressure;BME280_temperature;BME280_humidity;BME280_pressure;Samples;Min_cycle;Max_cycle;Signal;HPM_P1;HPM_P2
2022/06/30 00:01:06;;;;;;;7.57;6.90;;;;;;;21.76;76.94;94844.59;5114341;28;20509;-76
2022/06/30 00:03:33;;;;;;;7.13;6.53;;;;;;;21.74;76.36;94842.13;5095030;28;20810;-76
2022/06/30 00:06:00;;;;;;;8.07;6.10;;;;;;;21.82;76.38;94841.09;5114029;28;20443;-78
2022/06/30 00:08:27;;;;;;;7.13;6.17;;;;;;;21.87;75.91;94842.16;5114077;28;20443;-78
2022/06/30 00:10:54;;;;;;;7.70;6.50;;;;;;;21.87;75.49;94841.31;5114284;28;20448;-74
2022/06/30 00:13:21;;;;;;;7.97;6.53;;;;;;;21.87;75.26;94844.00;5113904;28;20446;-77
2022/06/30 00:15:48;;;;;;;7.10;6.40;;;;;;;21.85;75.44;94838.84;5113908;28;20443;-77
2022/06/30 00:18:16;;;;;;;10.27;7.53;;;;;;;21.88;75.20;94837.63;5113888;28;21017;-77
2022/06/30 00:20:43;;;;;;;9.17;8.30;;;;;;;21.89;74.85;94834.75;5077037;28;20483;-78
2022/06/30 00:23:10;;;;;;;7.03;6.33;;;;;;;21.84;74.89;94829.19;5113933;28;20450;-76
2022/06/30 00:25:36;;;;;;;7.30;6.60;;;;;;;21.74;74.36;94830.59;5113540;28;20477;-77
2022/06/30 00:28:03;;;;;;;7.10;6.50;;;;;;;21.76;74.35;94837.41;5113448;28;20432;-76
2022/06/30 00:30:30;;;;;;;8.80;6.77;;;;;;;21.82;74.20;94831.25;5113412;28;20436;-76
2022/06/30 00:32:57;;;;;;;9.37;5.67;;;;;;;21.80;73.69;94833.28;5113267;28;20473;-76
2022/06/30 00:35:25;;;;;;;7.10;6.50;;;;;;;21.82;73.74;94827.75;5113799;28;20446;-75
2022/06/30 00:37:52;;;;;;;7.60;6.20;;;;;;;21.85;73.11;94828.16;5113922;28;20439;-75
2022/06/30 00:40:19;;;;;;;8.03;7.23;;;;;;;21.88;73.67;94829.63;5113332;28;21012;-77
2022/06/30 00:42:46;;;;;;;9.20;7.60;;;;;;;21.90;73.62;94832.91;5077582;28;20446;-74
2022/06/30 00:45:13;;;;;;;7.87;5.90;;;;;;;21.90;73.04;94830.22;5113261;28;20451;-75
2022/06/30 00:47:40;;;;;;;6.23;5.73;;;;;;;21.91;73.37;94837.22;5113612;28;20436;-77
2022/06/30 00:50:08;;;;;;;13.03;6.90;;;;;;;21.84;73.48;94833.72;5113531;28;20439;-76
2022/06/30 00:52:37;;;;;;;7.27;6.60;;;;;;;21.79;73.24;94830.81;5113270;28;20443;-78
2022/06/30 00:55:06;;;;;;;11.40;7.03;;;;;;;21.67;73.65;94830.56;5112945;28;20454;-78
2022/06/30 00:57:35;;;;;;;9.17;7.07;;;;;;;21.57;73.79;94830.94;5112975;28;21031;-77
2022/06/30 01:00:04;;;;;;;8.70;7.00;;;;;;;21.45;74.35;94840.56;5112819;28;20486;-77
2022/06/30 01:02:31;;;;;;;7.47;6.33;;;;;;;21.36;74.89;94833.69;5113184;28;20440;-77
2022/06/30 01:04:58;;;;;;;7.47;6.87;;;;;;;21.30;75.10;94840.66;5112991;28;20443;-78
2022/06/30 01:07:27;;;;;;;7.17;6.47;;;;;;;21.20;75.09;94844.69;5113168;28;20853;-77
2022/06/30 01:12:43;;;;;;;7.10;6.40;;;;;;;21.23;74.91;94830.94;5113203;28;20421;-77
2022/06/30 01:15:11;;;;;;;8.73;7.57;;;;;;;21.20;74.65;94836.69;5112684;28;20937;-78
2022/06/30 01:17:38;;;;;;;9.90;6.57;;;;;;;21.18;75.03;94842.22;5112970;28;20453;-77
2022/06/30 01:20:06;;;;;;;6.70;6.10;;;;;;;21.17;75.07;94837.06;5112760;28;20483;-77
2022/06/30 01:22:35;;;;;;;9.03;7.20;;;;;;;21.21;75.24;94833.00;5076735;28;20926;-77
2022/06/30 01:25:02;;;;;;;7.40;6.67;;;;;;;21.13;75.68;94846.50;5112368;28;20490;-77
2022/06/30 01:27:28;;;;;;;10.57;7.00;;;;;;;21.11;75.96;94840.53;5113131;28;20462;-76
2022/06/30 01:29:56;;;;;;;7.17;6.53;;;;;;;21.11;76.48;94835.19;5112573;28;20447;-75
2022/06/30 01:32:23;;;;;;;7.03;6.47;;;;;;;21.04;76.77;94829.78;5116210;28;20976;-78
2022/06/30 01:34:50;;;;;;;10.30;6.97;;;;;;;20.91;76.72;94830.56;5116891;28;20450;-78
2022/06/30 01:37:16;;;;;;;7.80;6.33;;;;;;;20.88;76.94;94830.13;5064445;28;20440;-76
2022/06/30 01:39:45;;;;;;;10.60;7.33;;;;;;;20.80;77.35;94822.25;5117136;28;20810;-77
2022/06/30 01:42:12;;;;;;;8.60;7.20;;;;;;;20.73;77.27;94820.34;5097705;28;20778;-77
2022/06/30 01:44:39;;;;;;;7.50;6.90;;;;;;;20.74;77.31;94813.19;5116744;28;20921;-77
2022/06/30 01:47:06;;;;;;;10.23;7.63;;;;;;;20.71;78.48;94813.56;5116751;28;20443;-77
2022/06/30 01:49:33;;;;;;;11.50;7.53;;;;;;;20.73;78.04;94815.03;5116586;28;20447;-77
2022/06/30 01:51:59;;;;;;;7.83;7.17;;;;;;;20.68;78.32;94811.28;5116862;28;20952;-77
2022/06/30 01:54:26;;;;;;;7.20;6.47;;;;;;;20.74;78.35;94805.19;5080210;28;20431;-78
2022/06/30 01:56:54;;;;;;;7.67;6.63;;;;;;;20.76;78.44;94812.97;5116307;28;20439;-77
2022/06/30 01:59:22;;;;;;;6.90;6.30;;;;;;;20.75;78.16;94817.50;5116535;28;20933;-77
2022/06/30 02:01:48;;;;;;;8.10;7.30;;;;;;;20.71;77.68;94816.25;5116577;28;20487;-77
2022/06/30 02:07:00;;;;;;;6.87;6.10;;;;;;;20.78;78.07;94821.63;5116039;28;20438;-78
2022/06/30 02:09:27;;;;;;;9.07;7.60;;;;;;;20.71;78.13;94825.06;5116303;28;20439;-78
2022/06/30 02:14:36;;;;;;;8.30;7.47;;;;;;;20.78;78.12;94833.09;5115069;28;20484;-78
2022/06/30 02:17:03;;;;;;;10.73;7.00;;;;;;;20.78;78.02;94825.09;5116446;28;20522;-77
2022/06/30 02:19:29;;;;;;;7.80;7.00;;;;;;;20.85;78.37;94828.66;5116374;28;20438;-77
2022/06/30 02:21:56;;;;;;;9.10;7.37;;;;;;;20.84;78.55;94824.34;5115861;28;20484;-77
2022/06/30 02:24:24;;;;;;;10.37;7.10;;;;;;;20.88;78.70;94828.28;5115960;28;21022;-76
2022/06/30 02:26:51;;;;;;;7.90;7.30;;;;;;;20.82;78.81;94831.72;5063936;28;20967;-77
2022/06/30 02:29:19;;;;;;;9.17;7.30;;;;;;;20.76;78.82;94829.00;5115926;28;20450;-75
2022/06/30 02:31:46;;;;;;;9.90;7.80;;;;;;;20.71;78.80;94832.25;5079829;28;20450;-77
2022/06/30 02:34:13;;;;;;;8.60;7.37;;;;;;;20.58;79.04;94834.81;5115889;28;20443;-77
2022/06/30 02:36:40;;;;;;;11.40;7.93;;;;;;;20.55;79.54;94837.88;5115639;28;20809;-77
2022/06/30 02:39:06;;;;;;;8.80;8.00;;;;;;;20.53;80.10;94838.06;5115624;28;20478;-74
2022/06/30 02:41:33;;;;;;;9.77;7.50;;;;;;;20.62;80.27;94836.91;5079481;28;20475;-75
2022/06/30 02:44:01;;;;;;;7.47;6.87;;;;;;;20.64;79.95;94834.03;5115044;28;20440;-77
2022/06/30 02:46:30;;;;;;;13.33;8.37;;;;;;;20.70;80.31;94843.94;5115381;28;20443;-76
2022/06/30 02:48:57;;;;;;;11.70;8.23;;;;;;;20.72;80.39;94831.22;5115722;28;20451;-77
2022/06/30 02:51:24;;;;;;;12.03;7.70;;;;;;;20.71;79.56;94834.91;5063273;28;20435;-77
2022/06/30 02:53:50;;;;;;;9.13;7.40;;;;;;;20.68;79.62;94843.28;5115462;28;20452;-75
2022/06/30 02:56:17;;;;;;;9.90;8.30;;;;;;;20.65;79.36;94847.19;5115622;28;20454;-78
2022/06/30 02:58:44;;;;;;;12.23;7.97;;;;;;;20.62;78.99;94847.56;5115147;28;20925;-77
2022/06/30 03:01:11;;;;;;;14.43;7.47;;;;;;;20.65;78.84;94854.34;5114948;28;20565;-77
2022/06/30 03:03:39;;;;;;;8.37;7.30;;;;;;;20.64;78.99;94850.03;5115310;28;20443;-77
2022/06/30 03:06:06;;;;;;;8.90;8.00;;;;;;;20.64;79.18;94842.84;5115462;28;20466;-77
2022/06/30 03:08:34;;;;;;;9.07;7.63;;;;;;;20.58;79.37;94842.81;5095857;28;20447;-76
2022/06/30 03:11:00;;;;;;;8.47;7.67;;;;;;;20.53;80.33;94848.72;5115056;28;20447;-77
2022/06/30 03:13:27;;;;;;;7.90;7.20;;;;;;;20.55;80.46;94841.34;5078971;28;20435;-77
2022/06/30 03:15:54;;;;;;;8.90;8.10;;;;;;;20.57;80.48;94842.00;5115170;28;20448;-77
2022/06/30 03:18:21;;;;;;;9.30;8.50;;;;;;;20.53;80.24;94839.88;5115155;28;20440;-74
2022/06/30 03:20:49;;;;;;;8.00;7.30;;;;;;;20.47;80.26;94844.13;5101248;28;20483;-76
2022/06/30 03:23:16;;;;;;;8.20;7.40;;;;;;;20.45;80.04;94846.19;5094549;28;20444;-76
2022/06/30 03:25:43;;;;;;;7.87;6.50;;;;;;;20.51;79.79;94834.75;5093957;28;20995;-76
2022/06/30 03:28:10;;;;;;;9.30;7.50;;;;;;;20.59;79.36;94841.78;5094078;28;20440;-77
2022/06/30 03:30:37;;;;;;;7.80;7.10;;;;;;;20.64;78.52;94834.88;5094212;28;20444;-77
2022/06/30 03:33:04;;;;;;;14.07;7.87;;;;;;;20.64;78.86;94840.19;5041735;28;20443;-76
2022/06/30 03:35:30;;;;;;;14.83;7.73;;;;;;;20.86;78.57;94842.81;5094977;28;20785;-77
2022/06/30 03:37:59;;;;;;;8.93;7.60;;;;;;;20.95;78.01;94847.00;5094904;28;21213;-77
2022/06/30 03:40:26;;;;;;;8.13;7.43;;;;;;;21.24;77.26;94840.63;5094823;28;20444;-77
2022/06/30 03:42:55;;;;;;;8.00;7.07;;;;;;;21.64;75.55;94844.31;5095056;28;20447;-77
2022/06/30 03:45:22;;;;;;;17.27;8.00;;;;;;;22.09;74.46;94850.88;5042378;28;20433;-78
2022/06/30 03:47:49;;;;;;;8.60;7.03;;;;;;;22.49;73.04;94851.75;5095476;28;20830;-78
2022/06/30 03:50:16;;;;;;;8.37;7.53;;;;;;;22.91;71.32;94849.75;5094710;28;20459;-77
2022/06/30 03:52:42;;;;;;;8.97;7.70;;;;;;;23.26;70.55;94849.50;5094714;28;20440;-74
2022/06/30 03:55:12;;;;;;;14.30;9.03;;;;;;;23.42;69.63;94855.25;5093968;28;20447;-77
2022/06/30 03:57:39;;;;;;;13.83;7.20;;;;;;;23.60;69.14;94861.81;5094422;28;20441;-78
2022/06/30 04:00:07;;;;;;;11.73;7.67;;;;;;;23.83;67.62;94858.66;5042858;28;20788;-78
2022/06/30 04:02:34;;;;;;;8.40;7.20;;;;;;;24.03;66.03;94857.53;5094449;28;20483;-75
2022/06/30 04:05:01;;;;;;;9.47;8.20;;;;;;;24.24;64.98;94866.28;5094343;28;20444;-75
2022/06/30 04:07:27;;;;;;;12.33;7.50;;;;;;;24.50;65.62;94855.41;5093935;28;20444;-76
2022/06/30 04:09:54;;;;;;;9.23;8.33;;;;;;;24.77;63.36;94847.16;5093897;28;20451;-78
2022/06/30 04:12:22;;;;;;;11.60;8.20;;;;;;;25.12;62.93;94853.72;5094172;28;20448;-76
2022/06/30 04:14:49;;;;;;;7.40;6.73;;;;;;;25.40;60.99;94860.47;5058385;28;20464;-77
2022/06/30 04:17:16;;;;;;;8.97;6.50;;;;;;;25.63;60.52;94852.56;5093996;28;20919;-76
2022/06/30 04:19:43;;;;;;;14.23;8.33;;;;;;;25.81;59.55;94852.63;5093649;28;20436;-76
2022/06/30 04:22:10;;;;;;;10.20;7.00;;;;;;;25.96;59.80;94854.09;5058202;28;20506;-76
2022/06/30 04:24:37;;;;;;;12.97;8.43;;;;;;;26.08;58.63;94857.66;5093828;28;20483;-77
2022/06/30 04:27:05;;;;;;;7.80;7.00;;;;;;;26.36;58.53;94857.94;5093828;28;20456;-76
2022/06/30 04:29:33;;;;;;;8.10;7.40;;;;;;;26.52;57.73;94867.22;5093884;28;20523;-76
2022/06/30 04:34:44;;;;;;;19.60;7.90;;;;;;;26.25;58.40;94856.78;5093237;28;20431;-75
2022/06/30 04:37:11;;;;;;;11.40;7.40;;;;;;;26.17;59.71;94853.59;5093931;28;20969;-75
2022/06/30 04:39:38;;;;;;;12.70;9.00;;;;;;;26.09;59.90;94849.38;5093674;28;20954;-77
2022/06/30 04:42:04;;;;;;;10.30;7.40;;;;;;;26.19;60.47;94862.28;5092719;28;20488;-77
2022/06/30 04:44:31;;;;;;;13.73;7.97;;;;;;;26.12;60.24;94865.06;5093418;28;20506;-75
2022/06/30 04:46:59;;;;;;;8.67;7.87;;;;;;;26.08;60.58;94863.03;5041515;28;20451;-75
2022/06/30 04:49:26;;;;;;;10.97;8.10;;;;;;;26.33;60.59;94869.13;5093506;28;20453;-78
2022/06/30 04:51:53;;;;;;;12.03;8.40;;;;;;;26.47;59.35;94872.47;5059421;28;20468;-75
2022/06/30 04:54:19;;;;;;;11.50;8.50;;;;;;;26.64;59.38;94864.56;5112945;28;20440;-76
2022/06/30 04:56:46;;;;;;;11.70;8.20;;;;;;;26.84;58.25;94875.84;5113386;28;20451;-76
2022/06/30 04:59:13;;;;;;;8.30;7.50;;;;;;;26.86;57.65;94871.88;5111634;28;20447;-74
2022/06/30 05:01:40;;;;;;;10.00;7.37;;;;;;;26.92;57.82;94875.53;5093140;28;20939;-80
2022/06/30 05:04:08;;;;;;;10.20;6.90;;;;;;;26.89;56.84;94878.69;5093796;28;21234;-79
2022/06/30 05:06:35;;;;;;;9.20;7.03;;;;;;;26.96;56.59;94874.00;5099814;28;20461;-79
2022/06/30 05:09:02;;;;;;;11.37;8.27;;;;;;;27.06;56.45;94865.38;5114972;28;20424;-79
2022/06/30 05:11:29;;;;;;;8.57;7.77;;;;;;;27.29;56.19;94868.09;5062304;28;20508;-77
2022/06/30 05:13:56;;;;;;;10.50;9.50;;;;;;;27.48;56.61;94867.97;5113722;28;20446;-79
2022/06/30 05:16:23;;;;;;;15.93;7.63;;;;;;;27.74;56.28;94862.91;5046104;28;20456;-78
2022/06/30 05:18:49;;;;;;;10.43;8.23;;;;;;;28.04;54.78;94864.63;5112226;28;20822;-80
2022/06/30 05:21:18;;;;;;;14.03;7.60;;;;;;;28.28;54.10;94871.59;5109098;28;20508;-80
2022/06/30 05:26:28;;;;;;;14.77;7.70;;;;;;;28.47;53.36;94872.25;5098173;28;20447;-80
2022/06/30 05:26:30;;;;;;;10.70;8.80;;;;;;;28.64;52.88;94877.69;5092993;28;20431;-80
2022/06/30 05:28:58;;;;;;;8.97;8.00;;;;;;;28.71;52.15;94869.44;5092862;28;20454;-80
2022/06/30 05:31:25;;;;;;;9.50;8.60;;;;;;;28.75;53.28;94871.41;5092779;28;20447;-81
2022/06/30 05:33:52;;;;;;;16.20;7.87;;;;;;;28.94;52.23;94870.16;5092538;28;20435;-80
2022/06/30 05:36:20;;;;;;;10.13;7.60;;;;;;;29.09;51.27;94879.56;5092461;28;20941;-80
2022/06/30 05:38:47;;;;;;;10.83;7.90;;;;;;;29.29;51.45;94880.72;5092392;28;20436;-81
2022/06/30 05:41:14;;;;;;;11.50;8.20;;;;;;;29.39;50.57;94873.81;5092493;28;20487;-82
2022/06/30 05:43:41;;;;;;;14.20;8.10;;;;;;;29.37;50.56;94875.97;5092506;28;20438;-79
2022/06/30 05:46:08;;;;;;;10.37;8.20;;;;;;;29.50;50.67;94881.91;5092462;28;20447;-78
2022/06/30 05:48:35;;;;;;;9.47;8.37;;;;;;;29.68;49.36;94879.97;5092157;28;20532;-80
2022/06/30 05:51:01;;;;;;;10.13;8.77;;;;;;;29.74;48.71;94887.91;5092415;28;20447;-80
2022/06/30 05:53:30;;;;;;;8.20;7.40;;;;;;;29.39;48.48;94885.47;5092107;28;20453;-80
2022/06/30 05:55:56;;;;;;;14.97;7.33;;;;;;;29.27;49.72;94890.16;5092083;28;20455;-80
2022/06/30 05:58:24;;;;;;;8.00;6.93;;;;;;;28.95;50.25;94893.41;5056369;28;20524;-81
2022/06/30 06:00:50;;;;;;;11.60;7.57;;;;;;;28.42;51.77;94892.94;5092205;28;20848;-80
2022/06/30 06:03:17;;;;;;;9.60;7.37;;;;;;;27.51;53.52;94897.97;5092019;28;20545;-81
2022/06/30 06:05:44;;;;;;;16.43;7.70;;;;;;;27.69;55.09;94897.06;5092042;28;20515;-81
2022/06/30 06:08:12;;;;;;;9.37;8.07;;;;;;;27.92;53.01;94904.31;5092101;28;20449;-81
2022/06/30 06:10:41;;;;;;;17.43;8.40;;;;;;;28.23;54.06;94901.16;5091928;28;20935;-80
2022/06/30 06:13:09;;;;;;;13.13;7.60;;;;;;;28.55;54.53;94900.72;5056354;28;20435;-80
2022/06/30 06:15:36;;;;;;;11.30;7.40;;;;;;;28.86;51.90;94892.16;5091850;28;20976;-81
2022/06/30 06:18:03;;;;;;;7.40;6.90;;;;;;;28.85;51.05;94900.50;5057781;28;20447;-82
2022/06/30 06:20:30;;;;;;;8.63;7.70;;;;;;;29.07;49.99;94906.03;5095863;28;20532;-82
2022/06/30 06:22:56;;;;;;;7.83;7.23;;;;;;;29.21;48.47;94893.84;5095293;28;20813;-83
2022/06/30 06:25:24;;;;;;;8.90;6.97;;;;;;;29.37;46.82;94894.88;5096072;28;20483;-82
2022/06/30 06:30:36;;;;;;;10.80;7.20;;;;;;;29.71;47.77;94890.28;5052057;28;20858;-80
2022/06/30 06:33:03;;;;;;;10.00;8.10;;;;;;;30.06;48.77;94892.69;5096018;28;20443;-83
2022/06/30 06:35:30;;;;;;;7.57;6.97;;;;;;;30.34;46.91;94895.19;5043517;28;21045;-82
2022/06/30 06:37:57;;;;;;;10.17;8.03;;;;;;;30.50;46.29;94883.47;5095395;28;20443;-82
2022/06/30 06:40:24;;;;;;;8.10;6.80;;;;;;;30.60;46.29;94888.22;5043335;28;20843;-82
2022/06/30 06:42:52;;;;;;;9.03;7.90;;;;;;;30.52;46.65;94883.22;5095159;28;20486;-82
2022/06/30 06:45:19;;;;;;;9.10;8.03;;;;;;;30.50;47.13;94882.66;5043459;28;20449;-83
2022/06/30 06:47:46;;;;;;;7.27;6.67;;;;;;;30.49;46.52;94883.72;5095613;28;20435;-83
2022/06/30 06:50:13;;;;;;;8.27;7.40;;;;;;;30.67;46.90;94872.59;5095179;28;20455;-82
2022/06/30 06:52:40;;;;;;;14.20;7.10;;;;;;;30.87;46.08;94876.56;5095191;28;20816;-82
2022/06/30 06:55:07;;;;;;;7.73;7.03;;;;;;;31.09;45.50;94885.44;5095002;28;20447;-82
2022/06/30 06:57:35;;;;;;;9.83;6.97;;;;;;;31.23;45.22;94883.97;5043407;28;20467;-84
2022/06/30 07:00:04;;;;;;;7.77;7.00;;;;;;;31.38;47.34;94878.66;5094861;28;20441;-82
2022/06/30 07:02:31;;;;;;;13.63;7.90;;;;;;;31.34;45.84;94880.25;5095034;28;20981;-82
2022/06/30 07:04:58;;;;;;;15.60;7.97;;;;;;;31.50;46.41;94877.63;5094877;28;20451;-81
2022/06/30 07:07:25;;;;;;;9.27;8.33;;;;;;;31.46;45.07;94876.53;5094844;28;20454;-82
2022/06/30 07:09:52;;;;;;;11.30;8.07;;;;;;;31.53;46.06;94882.56;5094824;28;20447;-84
2022/06/30 07:12:18;;;;;;;9.87;7.83;;;;;;;31.41;45.35;94880.03;5075732;28;20441;-82
2022/06/30 07:14:45;;;;;;;10.40;6.53;;;;;;;31.46;46.01;94876.53;5094846;28;20497;-81
2022/06/30 07:17:14;;;;;;;7.13;6.43;;;;;;;31.12;46.19;94877.59;5094734;28;20452;-83
2022/06/30 07:19:41;;;;;;;8.77;7.00;;;;;;;30.73;45.56;94874.28;5094743;28;20455;-82
2022/06/30 07:22:07;;;;;;;9.00;7.73;;;;;;;30.39;46.12;94876.31;5094735;28;20478;-81
2022/06/30 07:24:34;;;;;;;7.87;7.10;;;;;;;30.62;46.45;94871.69;5094287;28;20472;-83
2022/06/30 07:27:02;;;;;;;13.67;8.23;;;;;;;30.87;47.22;94868.41;5094954;28;20453;-82
2022/06/30 07:29:30;;;;;;;11.50;7.60;;;;;;;30.75;46.92;94876.72;5094216;28;20454;-82
2022/06/30 07:31:57;;;;;;;9.80;8.47;;;;;;;31.03;47.25;94871.03;5094213;28;20538;-82
2022/06/30 07:34:26;;;;;;;9.50;6.57;;;;;;;31.30;45.46;94870.19;5094240;28;20448;-83
2022/06/30 07:36:52;;;;;;;15.17;7.33;;;;;;;31.53;44.79;94867.09;5058577;28;20449;-79
2022/06/30 07:39:19;;;;;;;7.87;6.87;;;;;;;31.75;45.14;94875.13;5094068;28;20447;-82
2022/06/30 07:41:48;;;;;;;7.93;7.17;;;;;;;31.88;43.87;94868.44;5094111;28;20453;-80
2022/06/30 07:44:15;;;;;;;7.77;7.10;;;;;;;31.98;45.00;94871.19;5094011;28;20449;-82
2022/06/30 07:46:41;;;;;;;8.17;6.50;;;;;;;31.90;45.10;94866.25;5093920;28;20443;-82
2022/06/30 07:49:08;;;;;;;6.20;5.73;;;;;;;32.00;42.54;94869.03;5093941;28;20444;-84
2022/06/30 07:51:37;;;;;;;6.40;5.90;;;;;;;31.76;43.04;94860.47;5094238;28;20448;-82
2022/06/30 07:54:04;;;;;;;12.47;7.20;;;;;;;31.71;41.59;94868.59;5094237;28;20446;-81
2022/06/30 07:56:31;;;;;;;10.30;6.70;;;;;;;31.52;44.34;94864.66;5093743;28;20436;-83
2022/06/30 07:58:58;;;;;;;8.20;7.13;;;;;;;31.67;43.38;94856.59;5093724;28;20447;-81
2022/06/30 08:01:25;;;;;;;9.53;6.33;;;;;;;31.82;43.85;94856.72;5093827;28;20453;-80
2022/06/30 08:03:52;;;;;;;8.13;7.17;;;;;;;32.01;45.76;94860.59;5094195;28;20465;-80
2022/06/30 08:06:19;;;;;;;7.93;7.23;;;;;;;31.91;45.08;94855.13;5041895;28;20441;-80
2022/06/30 08:08:47;;;;;;;7.73;6.90;;;;;;;31.97;44.69;94856.78;5093823;28;20475;-81
2022/06/30 08:11:14;;;;;;;7.80;7.10;;;;;;;32.11;44.10;94849.00;5093518;28;20444;-81
2022/06/30 08:13:41;;;;;;;9.47;6.80;;;;;;;32.26;43.63;94848.25;5041784;28;20428;-81
2022/06/30 08:16:08;;;;;;;7.70;6.90;;;;;;;32.35;45.10;94850.19;5093760;28;20438;-82
2022/06/30 08:18:35;;;;;;;8.60;6.40;;;;;;;32.52;44.84;94849.97;5093790;28;20443;-82
2022/06/30 08:21:02;;;;;;;6.30;5.80;;;;;;;32.59;42.69;94853.22;5093892;28;20525;-80
2022/06/30 08:23:29;;;;;;;8.40;7.30;;;;;;;32.62;42.66;94846.44;5093277;28;20481;-83
2022/06/30 08:25:57;;;;;;;6.97;6.37;;;;;;;32.46;43.13;94845.59;5040807;28;20478;-81
2022/06/30 08:28:24;;;;;;;8.33;6.53;;;;;;;32.10;43.10;94843.84;5093297;28;20527;-81
2022/06/30 08:30:51;;;;;;;11.03;6.33;;;;;;;32.09;42.34;94836.75;5093526;28;20461;-81
2022/06/30 08:33:18;;;;;;;11.97;6.40;;;;;;;31.90;42.70;94842.66;5041044;28;20449;-82
2022/06/30 08:35:45;;;;;;;7.43;6.70;;;;;;;31.67;43.62;94845.75;5093686;28;20441;-82
2022/06/30 08:38:12;;;;;;;7.23;5.83;;;;;;;31.77;44.35;94851.25;5093122;28;20447;-81
2022/06/30 08:43:25;;;;;;;7.73;6.67;;;;;;;31.68;42.45;94847.38;5093285;28;20491;-82
2022/06/30 08:45:53;;;;;;;9.40;7.00;;;;;;;31.49;43.45;94846.16;5093378;28;20811;-83
2022/06/30 08:48:20;;;;;;;6.57;5.67;;;;;;;31.65;43.00;94848.72;5093074;28;20445;-81
2022/06/30 08:50:49;;;;;;;6.87;6.23;;;;;;;31.86;42.68;94844.25;5093247;28;20443;-80
2022/06/30 08:53:17;;;;;;;6.90;6.20;;;;;;;31.56;42.90;94853.03;5093123;28;20476;-81
2022/06/30 08:55:46;;;;;;;10.33;6.40;;;;;;;31.67;41.27;94851.19;5040968;28;20453;-83
2022/06/30 08:58:13;;;;;;;8.33;6.20;;;;;;;31.77;41.53;94851.25;5093009;28;20448;-81
2022/06/30 09:00:42;;;;;;;8.47;6.40;;;;;;;31.93;41.03;94850.25;5092716;28;20445;-81
2022/06/30 09:03:10;;;;;;;6.87;6.27;;;;;;;32.12;42.64;94837.06;5092959;28;20481;-81
2022/06/30 09:05:38;;;;;;;6.30;5.80;;;;;;;32.29;42.01;94843.09;5092704;28;20461;-81
2022/06/30 09:08:06;;;;;;;6.53;5.50;;;;;;;32.47;45.15;94841.81;5092640;28;20503;-82
2022/06/30 09:10:32;;;;;;;10.60;6.67;;;;;;;32.53;44.46;94843.44;5092834;28;20445;-81
2022/06/30 09:13:01;;;;;;;7.27;6.77;;;;;;;32.65;44.11;94843.19;5092638;28;20444;-82
2022/06/30 09:15:30;;;;;;;8.37;6.90;;;;;;;32.71;42.15;94835.88;5040821;28;20509;-81
2022/06/30 09:17:58;;;;;;;7.43;6.67;;;;;;;32.56;41.79;94832.03;5092684;28;20484;-80
2022/06/30 09:20:34;;;;;;;9.07;6.70;;;;;;;32.43;43.85;94829.84;5092722;28;20526;-81
2022/06/30 09:23:02;;;;;;;7.10;6.37;;;;;;;32.29;43.08;94834.13;5092424;28;20947;-81
2022/06/30 09:25:31;;;;;;;10.03;6.63;;;;;;;32.30;44.71;94828.44;5092435;28;20489;-82
2022/06/30 09:28:07;;;;;;;7.70;6.20;;;;;;;32.30;43.51;94833.88;5092726;28;20456;-82
2022/06/30 09:30:35;;;;;;;6.60;6.00;;;;;;;32.36;41.74;94829.25;5092393;28;20455;-81
2022/06/30 09:33:08;;;;;;;8.20;7.50;;;;;;;32.12;45.73;94820.75;5041098;28;20450;-82
2022/06/30 09:35:37;;;;;;;23.93;7.60;;;;;;;31.85;43.88;94820.09;5092369;28;20452;-82
2022/06/30 09:38:06;;;;;;;6.70;6.20;;;;;;;31.39;43.60;94817.09;5092675;28;20454;-82
2022/06/30 09:40:35;;;;;;;7.17;6.27;;;;;;;31.11;45.18;94829.88;5092445;28;20454;-82
2022/06/30 09:43:03;;;;;;;7.90;6.13;;;;;;;31.17;45.50;94821.81;5092196;28;20488;-82
2022/06/30 09:45:40;;;;;;;10.67;6.50;;;;;;;31.29;45.63;94815.13;5092566;28;20448;-83
2022/06/30 09:48:11;;;;;;;9.07;6.63;;;;;;;31.14;44.71;94814.97;5092499;28;20443;-83
2022/06/30 09:50:38;;;;;;;9.57;6.83;;;;;;;31.25;47.46;94816.75;5092425;28;20451;-81
2022/06/30 09:53:08;;;;;;;6.57;5.97;;;;;;;31.11;47.12;94820.94;5095733;28;20827;-81
2022/06/30 09:55:43;;;;;;;7.07;6.40;;;;;;;31.17;45.40;94825.34;5096485;28;20520;-81
2022/06/30 09:58:11;;;;;;;6.93;6.30;;;;;;;31.28;45.27;94816.22;5096704;28;20452;-81
2022/06/30 10:00:49;;;;;;;6.73;5.77;;;;;;;31.30;44.84;94808.63;5096502;28;20527;-82
2022/06/30 10:03:19;;;;;;;9.63;6.33;;;;;;;31.34;45.67;94807.03;5096561;28;20483;-82
2022/06/30 10:05:48;;;;;;;9.03;6.00;;;;;;;31.43;45.94;94802.75;5096322;28;20451;-83
2022/06/30 10:08:17;;;;;;;6.37;5.87;;;;;;;31.27;45.64;94808.34;5096783;28;21007;-82
2022/06/30 10:10:44;;;;;;;7.03;6.33;;;;;;;31.38;43.84;94805.44;5096431;28;20457;-82
2022/06/30 10:13:15;;;;;;;8.20;6.33;;;;;;;31.54;43.04;94811.78;5096276;28;20449;-82
2022/06/30 10:15:45;;;;;;;8.67;5.40;;;;;;;31.67;45.63;94796.91;5096335;28;20855;-80
2022/06/30 10:18:14;;;;;;;9.30;6.20;;;;;;;31.64;45.97;94794.72;5095824;28;20810;-81
2022/06/30 10:20:42;;;;;;;6.33;5.73;;;;;;;31.59;44.65;94794.69;5096100;28;20445;-82
2022/06/30 10:23:09;;;;;;;9.87;6.10;;;;;;;31.65;45.36;94789.03;5095718;28;21009;-85
2022/06/30 10:25:37;;;;;;;5.90;5.47;;;;;;;31.67;48.49;94791.47;5096056;28;20477;-81
2022/06/30 10:28:05;;;;;;;7.50;6.20;;;;;;;31.45;46.02;94799.75;5095763;28;20452;-82
2022/06/30 10:30:45;;;;;;;11.03;5.97;;;;;;;31.54;47.09;94790.06;5096087;28;20452;-81
2022/06/30 10:33:20;;;;;;;6.13;5.53;;;;;;;31.47;46.54;94792.19;5096247;28;20440;-81
2022/06/30 10:35:56;;;;;;;6.23;5.77;;;;;;;31.51;43.45;94782.44;5095876;28;20526;-81
2022/06/30 10:38:30;;;;;;;6.60;5.90;;;;;;;31.54;43.84;94789.25;5095588;28;20450;-82
2022/06/30 10:41:04;;;;;;;5.63;5.10;;;;;;;31.41;45.56;94790.53;5095545;28;20440;-83
2022/06/30 10:43:31;;;;;;;6.53;5.93;;;;;;;31.25;46.41;94784.19;5095753;28;20536;-83
2022/06/30 10:46:02;;;;;;;6.17;5.67;;;;;;;31.04;44.68;94783.19;5095830;28;20536;-82
2022/06/30 10:48:50;;;;;;;6.67;6.00;;;;;;;31.11;45.18;94785.69;5096086;28;20471;-81
2022/06/30 10:51:18;;;;;;;5.40;4.77;;;;;;;31.26;45.85;94780.41;5095288;28;20493;-82
2022/06/30 10:53:51;;;;;;;5.13;4.73;;;;;;;31.29;43.89;94773.66;5095468;28;20458;-82
2022/06/30 10:56:18;;;;;;;5.20;4.70;;;;;;;31.35;42.73;94778.81;5095475;28;20500;-82
2022/06/30 10:59:05;;;;;;;5.63;4.53;;;;;;;31.45;42.69;94767.22;5095557;28;20443;-83
2022/06/30 11:01:32;;;;;;;5.23;4.73;;;;;;;30.97;42.21;94768.25;5095243;28;20455;-82
2022/06/30 11:04:03;;;;;;;4.77;4.20;;;;;;;31.06;38.59;94775.63;5094477;28;20488;-81
2022/06/30 11:07:06;;;;;;;5.37;4.97;;;;;;;31.25;39.27;94762.50;5095031;28;20534;-82
2022/06/30 11:10:20;;;;;;;4.90;4.40;;;;;;;31.29;42.52;94763.63;5095285;28;20545;-82
2022/06/30 11:12:58;;;;;;;5.07;4.67;;;;;;;31.20;40.25;94759.75;5094998;28;20451;-81
2022/06/30 11:15:51;;;;;;;6.53;5.30;;;;;;;30.95;43.14;94756.84;5043414;28;20949;-80
2022/06/30 11:18:20;;;;;;;6.07;5.50;;;;;;;31.12;46.29;94755.59;5094735;28;20998;-83
2022/06/30 11:20:49;;;;;;;5.30;4.43;;;;;;;31.24;44.48;94738.38;5094772;28;20937;-81
2022/06/30 11:23:18;;;;;;;5.83;5.33;;;;;;;31.33;45.38;94743.03;5095102;28;20486;-82
2022/06/30 11:28:34;;;;;;;5.47;5.07;;;;;;;31.27;44.73;94738.66;5094682;28;20932;-81
2022/06/30 11:31:01;;;;;;;6.30;5.50;;;;;;;31.08;43.06;94737.41;5094522;28;20448;-81
2022/06/30 11:33:28;;;;;;;5.30;4.67;;;;;;;31.19;44.71;94728.28;5094313;28;20511;-80
2022/06/30 11:36:02;;;;;;;5.60;5.10;;;;;;;31.20;42.44;94732.63;5094499;28;20532;-82
2022/06/30 11:38:30;;;;;;;5.27;4.77;;;;;;;31.28;44.71;94732.16;5042784;28;20443;-79
2022/06/30 11:41:54;;;;;;;4.47;4.17;;;;;;;31.43;42.23;94728.69;5094342;28;20476;-80
2022/06/30 11:43:51;;;;;;;5.57;4.70;;;;;;;31.46;43.32;94722.72;5093756;28;20479;-83
2022/06/30 11:46:18;;;;;;;8.87;4.90;;;;;;;31.54;43.86;94721.44;5094649;28;20451;-81
2022/06/30 11:48:45;;;;;;;7.43;5.33;;;;;;;31.60;44.81;94725.78;5094678;28;20452;-80
2022/06/30 11:51:12;;;;;;;7.93;4.57;;;;;;;31.62;44.41;94721.72;5094392;28;20470;-78
2022/06/30 11:53:41;;;;;;;4.90;4.57;;;;;;;31.62;43.38;94729.06;5042174;28;20815;-80
2022/06/30 11:56:09;;;;;;;6.37;5.17;;;;;;;31.63;44.48;94725.25;5093858;28;20447;-80